Time;durP1;ratioP1;P1;durP2;ratioP2;P2;SDS_P1;SDS_P2;PMS_P1;PMS_P2;Temp;Humidity;BMP_temperature;BMP_pressure;BME280_temperature;BME280_humidity;BME280_pressure;Samples;Min_cycle;Max_cycle;Signal;HPM_P1;HPM_P2
2022/08/30 00:03:18;;;;;;;1.33;0.73;;;14.00;99.90;;;;;;6314857;28;20294;-67
2022/08/30 00:06:27;;;;;;;0.82;0.80;;;13.90;99.90;;;;;;6315738;28;20298;-67
2022/08/30 00:09:32;;;;;;;1.05;0.70;;;13.90;99.90;;;;;;6314591;28;20298;-68
2022/08/30 00:12:38;;;;;;;0.88;0.60;;;13.90;99.90;;;;;;6314758;28;20294;-68
2022/08/30 00:15:45;;;;;;;0.68;0.60;;;13.90;99.90;;;;;;6314979;28;20271;-67
2022/08/30 00:18:50;;;;;;;1.20;0.75;;;13.90;99.90;;;;;;6314144;28;20303;-67
2022/08/30 00:21:56;;;;;;;0.80;0.80;;;13.90;99.90;;;;;;6314763;28;20270;-67
2022/08/30 00:25:01;;;;;;;0.75;0.73;;;13.90;99.90;;;;;;6313985;28;20265;-68
2022/08/30 00:28:08;;;;;;;1.23;0.85;;;13.90;99.90;;;;;;6313799;28;20301;-67
2022/08/30 00:31:15;;;;;;;0.80;0.80;;;13.80;99.90;;;;;;6314745;28;20270;-68
2022/08/30 00:34:20;;;;;;;1.42;0.70;;;13.90;99.90;;;;;;6314014;28;20329;-67
2022/08/30 00:37:26;;;;;;;0.73;0.73;;;13.80;99.90;;;;;;6313749;28;20291;-67
2022/08/30 00:40:31;;;;;;;0.75;0.65;;;13.80;99.90;;;;;;6314418;28;20471;-68
2022/08/30 00:43:36;;;;;;;0.60;0.60;;;13.70;99.90;;;;;;6313716;28;20314;-67
2022/08/30 00:46:44;;;;;;;0.63;0.63;;;13.80;99.90;;;;;;6314227;28;20271;-68
2022/08/30 00:49:55;;;;;;;0.75;0.75;;;13.70;99.90;;;;;;6313320;28;20464;-67
2022/08/30 00:53:03;;;;;;;0.77;0.77;;;13.70;99.90;;;;;;6313165;28;20480;-67
2022/08/30 00:56:09;;;;;;;1.40;0.70;;;13.70;99.90;;;;;;6314229;28;20266;-68
2022/08/30 00:59:15;;;;;;;0.90;0.60;;;13.60;99.90;;;;;;6313472;28;20294;-68
2022/08/30 01:02:23;;;;;;;0.40;0.40;;;13.60;99.90;;;;;;6313764;28;20286;-68
2022/08/30 01:05:28;;;;;;;0.70;0.70;;;13.60;99.90;;;;;;6313725;28;20298;-68
2022/08/30 01:08:35;;;;;;;0.82;0.82;;;13.60;99.90;;;;;;6312893;28;20297;-68
2022/08/30 01:11:42;;;;;;;0.80;0.70;;;13.60;99.90;;;;;;6294709;28;20263;-68
2022/08/30 01:14:48;;;;;;;0.60;0.60;;;13.50;99.90;;;;;;6288139;28;20295;-68
2022/08/30 01:17:57;;;;;;;0.60;0.60;;;13.50;99.90;;;;;;6288064;28;20295;-68
2022/08/30 01:21:11;;;;;;;0.70;0.70;;;13.50;99.90;;;;;;6288401;28;20320;-68
2022/08/30 01:24:19;;;;;;;0.70;0.70;;;13.50;99.90;;;;;;6288147;28;20474;-68
2022/08/30 01:27:26;;;;;;;3.83;0.77;;;13.50;99.90;;;;;;6279750;28;20291;-67
2022/08/30 01:30:32;;;;;;;2.13;0.90;;;13.40;99.90;;;;;;6288318;28;20270;-68
2022/08/30 01:33:39;;;;;;;1.80;0.82;;;13.50;99.90;;;;;;6287939;28;20295;-67
2022/08/30 01:36:45;;;;;;;3.88;0.93;;;13.50;99.90;;;;;;6288175;28;20280;-68
2022/08/30 01:39:52;;;;;;;1.95;0.70;;;13.50;99.90;;;;;;6287707;28;20349;-67
2022/08/30 01:42:57;;;;;;;0.82;0.80;;;13.40;99.90;;;;;;6287097;28;20610;-68
2022/08/30 01:46:03;;;;;;;1.85;1.00;;;13.40;99.90;;;;;;6287759;28;20271;-68
2022/08/30 01:49:11;;;;;;;1.40;0.80;;;13.40;99.90;;;;;;6287334;28;20303;-68
2022/08/30 01:52:18;;;;;;;1.13;0.63;;;13.50;99.90;;;;;;6286856;28;20295;-68
2022/08/30 01:55:26;;;;;;;0.70;0.70;;;13.50;99.90;;;;;;6287559;28;20360;-68
2022/08/30 01:58:32;;;;;;;0.60;0.60;;;13.50;99.90;;;;;;6287042;28;20294;-68
2022/08/30 02:01:38;;;;;;;0.70;0.70;;;13.50;99.90;;;;;;6287221;28;20276;-68
2022/08/30 02:04:44;;;;;;;1.08;0.80;;;13.40;99.90;;;;;;6287056;28;20462;-68
2022/08/30 02:07:50;;;;;;;0.70;0.70;;;13.50;99.90;;;;;;6286719;28;20294;-68
2022/08/30 02:10:58;;;;;;;0.70;0.70;;;13.40;99.90;;;;;;6291132;28;20271;-68
2022/08/30 02:14:05;;;;;;;0.80;0.80;;;13.50;99.90;;;;;;6311419;28;20294;-68
2022/08/30 02:17:13;;;;;;;1.55;0.82;;;13.40;99.90;;;;;;6311320;28;20271;-69
2022/08/30 02:20:18;;;;;;;0.73;0.73;;;13.50;99.90;;;;;;6311622;28;20294;-68
2022/08/30 02:23:24;;;;;;;2.20;1.00;;;13.40;99.90;;;;;;6311046;28;20294;-68
2022/08/30 02:26:31;;;;;;;0.80;0.80;;;13.50;99.90;;;;;;6311868;28;20271;-68
2022/08/30 02:29:36;;;;;;;2.25;0.77;;;13.40;99.90;;;;;;6311182;28;20616;-68
2022/08/30 02:32:41;;;;;;;0.70;0.65;;;13.40;99.90;;;;;;6310860;28;20290;-69
2022/08/30 02:35:47;;;;;;;0.77;0.77;;;13.40;99.90;;;;;;6311648;28;20541;-68
2022/08/30 02:38:54;;;;;;;2.00;0.82;;;13.40;99.90;;;;;;6310598;28;20298;-68
2022/08/30 02:42:00;;;;;;;0.70;0.70;;;13.40;99.90;;;;;;6310514;28;20290;-68
2022/08/30 02:45:07;;;;;;;4.63;1.00;;;13.40;99.90;;;;;;6311395;28;20270;-68
2022/08/30 02:48:14;;;;;;;0.70;0.70;;;13.40;99.90;;;;;;6310621;28;20302;-68
2022/08/30 02:51:20;;;;;;;0.75;0.75;;;13.40;99.90;;;;;;6311229;28;20270;-68
2022/08/30 02:54:26;;;;;;;2.20;0.75;;;13.50;99.90;;;;;;6310767;28;20302;-68
2022/08/30 02:57:34;;;;;;;1.23;0.88;;;13.40;99.90;;;;;;6310750;28;20294;-68
2022/08/30 03:00:40;;;;;;;0.68;0.68;;;13.40;99.90;;;;;;6305737;28;20291;-68
2022/08/30 03:03:46;;;;;;;1.00;1.00;;;13.40;99.90;;;;;;6289636;28;20314;-68
2022/08/30 03:06:52;;;;;;;0.70;0.70;;;13.40;99.90;;;;;;6289626;28;20554;-68
2022/08/30 03:09:57;;;;;;;0.80;0.80;;;13.50;99.90;;;;;;6309844;28;20586;-68
2022/08/30 03:13:06;;;;;;;1.77;0.80;;;13.40;99.90;;;;;;6285083;28;20295;-69
2022/08/30 03:16:13;;;;;;;0.93;0.60;;;13.40;99.90;;;;;;6285540;28;20452;-68
2022/08/30 03:19:19;;;;;;;0.70;0.70;;;13.40;99.90;;;;;;6292835;28;20290;-68
2022/08/30 03:22:24;;;;;;;1.00;1.00;;;13.40;99.90;;;;;;6310283;28;20556;-68
2022/08/30 03:25:30;;;;;;;0.73;0.73;;;13.40;99.90;;;;;;6290663;28;20270;-68
2022/08/30 03:28:37;;;;;;;0.80;0.80;;;13.40;99.90;;;;;;6300023;28;20278;-68
2022/08/30 03:31:43;;;;;;;1.10;0.70;;;13.40;99.90;;;;;;6287448;28;20295;-68
2022/08/30 03:34:58;;;;;;;6.95;0.90;;;13.40;99.90;;;;;;6299675;28;20441;-68
2022/08/30 03:38:04;;;;;;;0.75;0.70;;;13.40;99.90;;;;;;6309692;28;20297;-68
2022/08/30 03:41:10;;;;;;;0.70;0.70;;;13.50;99.90;;;;;;6309867;28;20294;-68
2022/08/30 03:44:16;;;;;;;0.70;0.70;;;13.40;99.90;;;;;;6290022;28;20263;-69
2022/08/30 03:47:22;;;;;;;0.80;0.80;;;13.50;99.90;;;;;;6284967;28;20295;-68
2022/08/30 03:50:28;;;;;;;1.48;0.85;;;13.50;99.90;;;;;;6285074;28;20458;-68
2022/08/30 03:53:34;;;;;;;1.08;1.00;;;13.50;99.90;;;;;;6284892;28;20276;-68
2022/08/30 03:56:39;;;;;;;3.03;0.82;;;13.50;99.90;;;;;;6285039;28;20291;-68
2022/08/30 03:59:46;;;;;;;1.33;1.20;;;13.60;99.90;;;;;;6292669;28;20262;-68
2022/08/30 04:02:51;;;;;;;0.90;0.90;;;13.60;99.90;;;;;;6309412;28;20310;-67
2022/08/30 04:05:57;;;;;;;0.82;0.73;;;13.60;99.90;;;;;;6309877;28;20294;-67
2022/08/30 04:09:03;;;;;;;0.80;0.80;;;13.50;99.90;;;;;;6310206;28;20291;-68
2022/08/30 04:12:09;;;;;;;4.03;0.70;;;13.50;99.90;;;;;;6309141;28;20298;-67
2022/08/30 04:15:16;;;;;;;0.75;0.70;;;13.60;99.90;;;;;;6310245;28;20271;-68
2022/08/30 04:18:22;;;;;;;0.88;0.88;;;13.50;99.90;;;;;;6309399;28;20294;-68
2022/08/30 04:21:28;;;;;;;1.17;0.77;;;13.60;99.90;;;;;;6309488;28;20484;-68
2022/08/30 04:24:33;;;;;;;0.73;0.73;;;13.60;99.90;;;;;;6310558;28;20433;-68
2022/08/30 04:27:39;;;;;;;0.80;0.80;;;13.60;99.90;;;;;;6314046;28;20299;-68
2022/08/30 04:30:46;;;;;;;0.70;0.70;;;13.50;99.90;;;;;;6314117;28;20278;-68
2022/08/30 04:33:51;;;;;;;0.93;0.73;;;13.50;99.90;;;;;;6307323;28;20579;-68
2022/08/30 04:36:57;;;;;;;0.98;0.90;;;13.50;99.90;;;;;;6288830;28;20295;-68
2022/08/30 04:40:03;;;;;;;0.80;0.80;;;13.50;99.90;;;;;;6289287;28;20464;-68
2022/08/30 04:43:10;;;;;;;2.08;0.93;;;13.40;99.90;;;;;;6288770;28;20370;-68
2022/08/30 04:46:18;;;;;;;0.80;0.80;;;13.40;99.90;;;;;;6288787;28;20298;-68
2022/08/30 04:49:23;;;;;;;1.25;0.82;;;13.40;99.90;;;;;;6289011;28;20288;-68
2022/08/30 04:52:29;;;;;;;1.42;1.02;;;13.50;99.90;;;;;;6288360;28;20299;-68
2022/08/30 04:55:34;;;;;;;2.00;1.00;;;13.50;99.90;;;;;;6288508;28;20267;-68
2022/08/30 04:58:40;;;;;;;0.90;0.90;;;13.50;99.90;;;;;;6288715;28;20567;-68
2022/08/30 05:01:47;;;;;;;0.90;0.90;;;13.60;99.90;;;;;;6288212;28;20473;-68
2022/08/30 05:08:20;;;;;;;0.88;0.88;;;13.50;99.90;;;;;;6288002;28;20303;-68
2022/08/30 05:11:29;;;;;;;0.90;0.90;;;13.60;99.90;;;;;;6287632;28;20298;-68
2022/08/30 05:14:34;;;;;;;3.10;0.90;;;13.60;99.90;;;;;;6288095;28;20271;-68
2022/08/30 05:17:41;;;;;;;3.90;0.98;;;13.60;99.90;;;;;;6287701;28;20300;-68
2022/08/30 05:20:46;;;;;;;0.82;0.80;;;13.70;99.90;;;;;;6287390;28;20276;-68
2022/08/30 05:23:54;;;;;;;0.95;0.80;;;13.70;99.90;;;;;;6287929;28;20453;-68
2022/08/30 05:27:00;;;;;;;2.38;0.80;;;13.70;99.90;;;;;;6287552;28;20291;-68
2022/08/30 05:30:07;;;;;;;0.88;0.88;;;13.80;99.90;;;;;;6288098;28;20270;-68
2022/08/30 05:33:16;;;;;;;0.93;0.75;;;13.70;99.90;;;;;;6284787;28;20304;-68
2022/08/30 05:36:24;;;;;;;1.85;0.70;;;13.80;99.90;;;;;;6286328;28;20477;-68
2022/08/30 05:39:30;;;;;;;0.70;0.70;;;13.80;99.90;;;;;;6288027;28;20271;-68
2022/08/30 05:42:55;;;;;;;2.38;0.80;;;13.90;99.90;;;;;;6287506;28;20403;-68
2022/08/30 05:46:01;;;;;;;0.70;0.70;;;13.90;99.90;;;;;;6287428;28;20291;-67
2022/08/30 05:49:09;;;;;;;1.10;0.95;;;14.00;99.90;;;;;;6287010;28;20292;-68
2022/08/30 05:52:17;;;;;;;0.57;0.57;;;14.00;99.90;;;;;;6286691;28;20481;-68
2022/08/30 05:55:22;;;;;;;0.65;0.65;;;14.00;99.90;;;;;;6287824;28;20271;-68
2022/08/30 05:58:28;;;;;;;0.88;0.88;;;14.10;99.90;;;;;;6286643;28;20478;-68
2022/08/30 06:01:36;;;;;;;0.75;0.75;;;14.10;99.90;;;;;;6286584;28;20294;-68
2022/08/30 06:04:43;;;;;;;3.20;0.80;;;14.10;99.90;;;;;;6286582;28;20314;-68
2022/08/30 06:07:49;;;;;;;0.70;0.70;;;14.20;99.90;;;;;;6286690;28;20299;-69
2022/08/30 06:10:54;;;;;;;0.90;0.90;;;14.30;99.90;;;;;;6286545;28;20460;-69
2022/08/30 06:14:00;;;;;;;0.70;0.70;;;14.40;99.90;;;;;;6287164;28;20275;-69
2022/08/30 06:17:06;;;;;;;1.00;0.80;;;14.40;99.90;;;;;;6286839;28;20295;-68
2022/08/30 06:20:17;;;;;;;1.00;0.80;;;14.40;99.90;;;;;;6286329;28;20274;-68
2022/08/30 06:23:23;;;;;;;1.75;0.80;;;14.50;99.90;;;;;;6286222;28;20359;-68
2022/08/30 06:26:29;;;;;;;1.27;0.80;;;14.60;99.90;;;;;;6286262;28;20286;-68
2022/08/30 06:29:37;;;;;;;0.70;0.70;;;14.60;99.90;;;;;;6286920;28;20267;-68
2022/08/30 06:32:43;;;;;;;1.25;0.90;;;14.70;99.90;;;;;;6286137;28;20461;-68
2022/08/30 06:35:50;;;;;;;0.60;0.60;;;14.80;99.90;;;;;;6285806;28;20268;-68
2022/08/30 06:39:04;;;;;;;0.75;0.70;;;14.90;99.90;;;;;;6286360;28;20275;-68
2022/08/30 06:42:12;;;;;;;0.85;0.73;;;15.10;99.90;;;;;;6285826;28;20363;-68
2022/08/30 06:45:19;;;;;;;1.05;0.75;;;15.40;99.90;;;;;;6284477;28;20321;-68
2022/08/30 06:48:24;;;;;;;0.80;0.80;;;15.60;99.90;;;;;;6285358;28;20295;-68
2022/08/30 06:51:34;;;;;;;0.68;0.68;;;15.80;99.90;;;;;;6285243;28;20290;-68
2022/08/30 06:54:39;;;;;;;0.60;0.60;;;15.90;99.90;;;;;;6285996;28;20278;-68
2022/08/30 06:57:46;;;;;;;1.73;0.70;;;16.00;99.90;;;;;;6285338;28;20299;-68
2022/08/30 07:00:51;;;;;;;0.60;0.60;;;16.10;99.90;;;;;;6285461;28;20567;-68
2022/08/30 07:03:57;;;;;;;2.38;0.90;;;16.30;99.90;;;;;;6285254;28;20295;-68
2022/08/30 07:07:04;;;;;;;0.60;0.50;;;16.60;99.90;;;;;;6285426;28;20319;-68
2022/08/30 07:10:10;;;;;;;0.70;0.70;;;16.70;99.90;;;;;;6285395;28;20271;-68
2022/08/30 07:13:16;;;;;;;0.90;0.90;;;16.90;99.90;;;;;;6285311;28;20298;-68
2022/08/30 07:16:22;;;;;;;2.10;0.85;;;16.90;99.90;;;;;;6284980;28;20295;-68
2022/08/30 07:19:27;;;;;;;0.90;0.90;;;17.00;99.90;;;;;;6285110;28;20276;-67
2022/08/30 07:22:34;;;;;;;1.67;0.73;;;16.90;99.90;;;;;;6285082;28;20307;-68
2022/08/30 07:25:41;;;;;;;0.60;0.60;;;16.80;99.90;;;;;;6285202;28;20463;-68
2022/08/30 07:28:47;;;;;;;2.50;0.70;;;16.70;99.90;;;;;;6284379;28;20271;-67
2022/08/30 07:31:59;;;;;;;0.80;0.80;;;16.70;99.90;;;;;;6285398;28;20483;-68
2022/08/30 07:35:05;;;;;;;0.98;0.90;;;16.60;99.90;;;;;;6285444;28;20465;-67
2022/08/30 07:38:15;;;;;;;1.13;0.70;;;16.60;99.90;;;;;;6284972;28;20296;-68
2022/08/30 07:41:26;;;;;;;2.80;0.80;;;16.50;99.90;;;;;;6284899;28;20519;-68
2022/08/30 07:44:31;;;;;;;0.95;0.90;;;16.50;99.90;;;;;;6285647;28;20296;-68
2022/08/30 07:47:37;;;;;;;0.90;0.90;;;16.50;99.90;;;;;;6284603;28;20295;-68
2022/08/30 07:50:45;;;;;;;0.90;0.90;;;16.60;99.90;;;;;;6284736;28;20271;-67
2022/08/30 07:53:52;;;;;;;3.78;2.50;;;16.50;99.90;;;;;;6284967;28;20270;-67
2022/08/30 07:56:57;;;;;;;0.80;0.60;;;16.50;99.90;;;;;;6284594;28;20304;-67
2022/08/30 08:00:05;;;;;;;0.95;0.70;;;16.50;99.90;;;;;;6286424;28;20270;-67
2022/08/30 08:03:18;;;;;;;0.50;0.50;;;16.60;99.90;;;;;;6289653;28;20291;-67
2022/08/30 08:06:24;;;;;;;0.80;0.80;;;16.50;99.90;;;;;;6289272;28;20299;-68
2022/08/30 08:09:32;;;;;;;0.95;0.60;;;16.60;99.90;;;;;;6290233;28;20267;-68
2022/08/30 08:12:38;;;;;;;0.60;0.60;;;16.70;99.90;;;;;;6289579;28;20335;-67
2022/08/30 08:15:43;;;;;;;1.38;0.75;;;16.60;99.90;;;;;;6289375;28;20276;-68
2022/08/30 08:18:48;;;;;;;0.65;0.65;;;16.60;99.90;;;;;;6289709;28;20271;-68
2022/08/30 08:21:56;;;;;;;0.70;0.70;;;16.60;99.90;;;;;;6289491;28;20318;-68
2022/08/30 08:25:22;;;;;;;1.00;1.00;;;16.70;99.90;;;;;;6289553;28;20291;-67
2022/08/30 08:28:28;;;;;;;1.00;1.00;;;16.70;99.90;;;;;;6289170;28;20618;-68
2022/08/30 08:31:33;;;;;;;0.85;0.80;;;16.80;99.90;;;;;;6289057;28;20291;-67
2022/08/30 08:34:40;;;;;;;1.55;0.80;;;16.70;99.90;;;;;;6289305;28;20526;-68
2022/08/30 08:37:45;;;;;;;3.42;0.70;;;16.70;99.90;;;;;;6288720;28;20303;-67
2022/08/30 08:41:02;;;;;;;2.08;0.75;;;16.80;99.90;;;;;;6288933;28;20275;-68
2022/08/30 08:44:13;;;;;;;1.17;0.80;;;16.80;99.90;;;;;;6289262;28;20271;-67
2022/08/30 08:47:25;;;;;;;4.68;1.02;;;16.90;99.90;;;;;;6288042;28;20294;-67
2022/08/30 08:50:30;;;;;;;0.65;0.65;;;16.90;99.90;;;;;;6289152;28;20267;-68
2022/08/30 08:53:35;;;;;;;2.80;0.60;;;16.90;99.90;;;;;;6288399;28;20274;-68
2022/08/30 08:56:52;;;;;;;0.90;0.90;;;17.10;99.90;;;;;;6288384;28;20319;-68
2022/08/30 08:59:58;;;;;;;1.00;1.00;;;17.10;99.90;;;;;;6288465;28;20287;-68
2022/08/30 09:03:04;;;;;;;0.70;0.70;;;17.10;99.90;;;;;;6288612;28;20294;-68
2022/08/30 09:06:37;;;;;;;0.90;0.90;;;17.10;99.90;;;;;;6288004;28;20294;-68
2022/08/30 09:09:49;;;;;;;0.70;0.70;;;17.20;99.90;;;;;;6288642;28;20271;-67
2022/08/30 09:12:56;;;;;;;2.33;1.00;;;17.30;99.90;;;;;;6286568;28;20321;-68
2022/08/30 09:16:06;;;;;;;0.60;0.60;;;17.30;99.90;;;;;;6288184;28;20314;-66
2022/08/30 09:19:35;;;;;;;1.77;0.65;;;17.30;98.70;;;;;;6288293;28;20466;-68
2022/08/30 09:22:42;;;;;;;1.10;0.80;;;17.40;98.90;;;;;;6287578;28;20299;-68
2022/08/30 09:25:54;;;;;;;12.60;1.20;;;17.40;98.50;;;;;;6287710;28;20287;-69
2022/08/30 09:29:03;;;;;;;0.60;0.55;;;17.40;98.70;;;;;;6288602;28;20267;-68
2022/08/30 09:32:35;;;;;;;3.40;1.10;;;17.40;97.90;;;;;;6287615;28;20295;-68
2022/08/30 09:35:46;;;;;;;0.75;0.75;;;17.60;97.80;;;;;;6287203;28;20271;-67
2022/08/30 09:39:00;;;;;;;0.95;0.93;;;17.60;98.50;;;;;;6287663;28;20554;-67
2022/08/30 09:42:15;;;;;;;0.70;0.70;;;17.60;99.90;;;;;;6287325;28;20299;-67
2022/08/30 09:45:33;;;;;;;0.80;0.80;;;17.60;99.90;;;;;;6287975;28;20291;-68
2022/08/30 09:48:42;;;;;;;1.10;1.10;;;17.60;99.90;;;;;;6286525;28;20275;-68
2022/08/30 09:51:53;;;;;;;0.70;0.70;;;17.70;99.40;;;;;;6287034;28;20299;-68
2022/08/30 09:55:10;;;;;;;2.85;0.55;;;17.70;98.50;;;;;;6287765;28;20267;-67
2022/08/30 09:58:27;;;;;;;0.90;0.90;;;17.80;98.60;;;;;;6285764;28;20323;-67
2022/08/30 10:01:39;;;;;;;2.63;0.77;;;17.90;97.90;;;;;;6286390;28;20527;-69
2022/08/30 10:04:53;;;;;;;1.40;1.40;;;18.00;97.90;;;;;;6287399;28;20306;-67
2022/08/30 10:08:09;;;;;;;0.90;0.90;;;18.10;99.30;;;;;;6286281;28;20291;-68
2022/08/30 10:11:28;;;;;;;0.90;0.90;;;18.10;99.60;;;;;;6286486;28;20582;-67
2022/08/30 10:14:54;;;;;;;0.80;0.80;;;18.00;99.60;;;;;;6286973;28;20288;-68
2022/08/30 10:18:07;;;;;;;1.33;1.33;;;18.00;99.30;;;;;;6286480;28;20304;-68
2022/08/30 10:21:18;;;;;;;0.80;0.80;;;18.10;98.90;;;;;;6286295;28;20478;-68
2022/08/30 10:24:29;;;;;;;0.88;0.88;;;18.20;98.50;;;;;;6286247;28;20569;-68
2022/08/30 10:27:42;;;;;;;2.38;0.60;;;18.30;97.50;;;;;;6285980;28;20582;-68
2022/08/30 10:30:52;;;;;;;0.70;0.70;;;18.40;97.10;;;;;;6285859;28;20267;-67
2022/08/30 10:34:05;;;;;;;1.00;1.00;;;18.40;97.30;;;;;;6286476;28;20263;-67
2022/08/30 10:37:15;;;;;;;1.05;1.05;;;18.60;98.70;;;;;;6286444;28;20299;-67
2022/08/30 10:43:57;;;;;;;1.08;1.02;;;18.30;99.90;;;;;;6285362;28;20275;-68
2022/08/30 10:47:13;;;;;;;2.13;1.10;;;18.10;99.90;;;;;;6285815;28;20306;-68
2022/08/30 10:50:32;;;;;;;1.70;1.38;;;18.00;99.90;;;;;;6286142;28;20276;-69
2022/08/30 10:53:50;;;;;;;2.70;1.40;;;18.00;99.90;;;;;;6285358;28;20278;-68
2022/08/30 10:56:56;;;;;;;3.72;1.00;;;18.00;99.90;;;;;;6285621;28;20477;-69
2022/08/30 11:00:07;;;;;;;2.00;1.90;;;18.20;99.90;;;;;;6285807;28;20279;-69
2022/08/30 11:04:24;;;;;;;3.58;1.30;;;18.20;99.90;;;;;;6285553;28;20299;-68
2022/08/30 11:07:39;;;;;;;1.58;1.00;;;18.20;99.90;;;;;;6309831;28;20303;-68
2022/08/30 11:10:53;;;;;;;1.83;1.00;;;18.20;99.90;;;;;;6310240;28;20463;-68
2022/08/30 11:14:02;;;;;;;0.80;0.80;;;18.30;99.90;;;;;;6310828;28;20450;-68
2022/08/30 11:17:26;;;;;;;1.10;1.00;;;18.40;99.90;;;;;;6310446;28;20306;-68
2022/08/30 11:20:38;;;;;;;0.98;0.98;;;18.50;99.90;;;;;;6310728;28;20276;-68
2022/08/30 11:24:02;;;;;;;0.80;0.80;;;18.50;99.90;;;;;;6309543;28;20274;-68
2022/08/30 11:27:47;;;;;;;0.85;0.85;;;18.40;99.90;;;;;;6309917;28;20305;-69
2022/08/30 11:31:05;;;;;;;0.82;0.82;;;18.00;99.90;;;;;;6285303;28;20367;-69
2022/08/30 11:34:13;;;;;;;2.13;0.82;;;17.80;99.90;;;;;;6295467;28;20267;-69
2022/08/30 11:37:36;;;;;;;2.67;1.40;;;17.70;99.90;;;;;;6310293;28;20303;-68
2022/08/30 11:40:52;;;;;;;0.90;0.90;;;17.60;99.90;;;;;;6310012;28;20536;-68
2022/08/30 11:44:28;;;;;;;2.97;1.35;;;17.40;99.90;;;;;;6310619;28;20274;-69
2022/08/30 11:47:42;;;;;;;1.00;1.00;;;17.50;99.90;;;;;;6307674;28;20620;-69
2022/08/30 11:50:53;;;;;;;3.53;0.90;;;17.40;99.90;;;;;;6309457;28;20421;-69
2022/08/30 11:54:06;;;;;;;1.38;1.27;;;17.50;99.90;;;;;;6309069;28;20275;-69
2022/08/30 11:57:23;;;;;;;0.85;0.85;;;17.70;99.90;;;;;;6309599;28;20294;-68
2022/08/30 12:00:33;;;;;;;1.02;1.02;;;17.90;99.90;;;;;;6309509;28;20335;-69
2022/08/30 12:03:40;;;;;;;0.95;0.95;;;18.10;99.90;;;;;;6302605;28;20307;-68
2022/08/30 12:06:52;;;;;;;1.98;0.90;;;18.30;99.90;;;;;;6309783;28;20582;-68
2022/08/30 12:10:01;;;;;;;1.60;0.90;;;18.30;99.90;;;;;;6310465;28;20571;-68
2022/08/30 12:13:09;;;;;;;0.68;0.68;;;18.20;99.90;;;;;;6310168;28;20290;-68
2022/08/30 12:16:18;;;;;;;0.50;0.50;;;18.00;99.90;;;;;;6309728;28;20301;-68
2022/08/30 12:19:24;;;;;;;2.28;0.85;;;18.00;99.90;;;;;;6310378;28;20270;-68
2022/08/30 12:22:36;;;;;;;0.98;0.98;;;18.00;99.90;;;;;;6309706;28;20585;-69
2022/08/30 12:25:41;;;;;;;0.63;0.63;;;18.00;99.90;;;;;;6309670;28;20554;-68
2022/08/30 12:28:50;;;;;;;0.90;0.90;;;17.90;99.90;;;;;;6309756;28;20291;-68
2022/08/30 12:31:58;;;;;;;2.72;1.85;;;17.90;99.90;;;;;;6309435;28;20581;-68
2022/08/30 12:35:07;;;;;;;0.95;0.95;;;17.90;99.90;;;;;;6309007;28;20263;-69
2022/08/30 12:38:19;;;;;;;0.90;0.90;;;18.00;99.90;;;;;;6309451;28;20298;-68
2022/08/30 12:41:32;;;;;;;1.08;0.98;;;18.00;99.90;;;;;;6309471;28;20290;-68
2022/08/30 12:44:39;;;;;;;1.17;0.70;;;18.10;99.90;;;;;;6291858;28;20270;-67
2022/08/30 12:47:49;;;;;;;0.77;0.77;;;18.10;99.90;;;;;;6312132;28;20302;-68
2022/08/30 12:50:57;;;;;;;0.70;0.70;;;18.10;99.90;;;;;;6313626;28;20578;-68
2022/08/30 12:54:08;;;;;;;1.63;0.90;;;18.20;99.90;;;;;;6314014;28;20266;-68
2022/08/30 12:57:39;;;;;;;0.75;0.70;;;18.10;99.90;;;;;;6313413;28;20302;-68
2022/08/30 13:00:46;;;;;;;3.40;1.08;;;18.20;99.50;;;;;;6313322;28;22386;-68
2022/08/30 13:04:05;;;;;;;0.98;0.98;;;18.20;98.40;;;;;;6313230;28;20553;-68
2022/08/30 13:07:13;;;;;;;1.20;1.10;;;18.30;98.80;;;;;;6313017;28;20294;-68
2022/08/30 13:10:21;;;;;;;0.73;0.73;;;18.40;98.90;;;;;;6313804;28;20275;-68
2022/08/30 13:13:37;;;;;;;0.70;0.70;;;18.40;99.40;;;;;;6305244;28;20299;-69
2022/08/30 13:16:43;;;;;;;1.75;0.80;;;18.40;98.90;;;;;;6312842;28;20390;-67
2022/08/30 13:20:04;;;;;;;0.50;0.50;;;18.40;98.70;;;;;;6313241;28;20416;-67
2022/08/30 13:23:11;;;;;;;0.88;0.88;;;18.30;98.70;;;;;;6312687;28;20598;-67
2022/08/30 13:26:16;;;;;;;0.80;0.80;;;18.20;99.30;;;;;;6312520;28;20286;-67
2022/08/30 13:29:29;;;;;;;1.35;1.20;;;18.10;99.30;;;;;;6313118;28;20290;-67
2022/08/30 13:32:36;;;;;;;0.95;0.95;;;18.10;99.50;;;;;;6312517;28;20298;-68
2022/08/30 13:35:43;;;;;;;1.02;1.02;;;18.20;99.80;;;;;;6309175;28;20454;-68
2022/08/30 13:38:49;;;;;;;1.02;1.00;;;18.10;99.20;;;;;;6312745;28;20274;-68
2022/08/30 13:41:55;;;;;;;1.05;1.00;;;18.20;99.60;;;;;;6312742;28;20593;-68
2022/08/30 13:45:22;;;;;;;0.88;0.88;;;18.30;99.10;;;;;;6313161;28;20275;-68
2022/08/30 13:48:47;;;;;;;4.90;0.77;;;18.30;97.80;;;;;;6311859;28;20362;-68
2022/08/30 13:51:56;;;;;;;1.10;1.10;;;18.30;97.80;;;;;;6312480;28;20294;-67
2022/08/30 13:55:21;;;;;;;1.67;0.80;;;18.30;98.40;;;;;;6312856;28;20447;-67
2022/08/30 13:58:27;;;;;;;0.98;0.77;;;18.40;98.20;;;;;;6311115;28;20333;-68
2022/08/30 14:01:33;;;;;;;1.02;1.02;;;18.50;98.00;;;;;;6311380;28;20297;-66
2022/08/30 14:04:59;;;;;;;0.93;0.93;;;18.70;98.10;;;;;;6311994;28;20294;-67
2022/08/30 14:08:10;;;;;;;1.00;0.70;;;18.80;97.90;;;;;;6311094;28;20294;-67
2022/08/30 14:11:36;;;;;;;1.75;0.60;;;18.80;97.50;;;;;;6310999;28;20310;-67
2022/08/30 14:14:42;;;;;;;0.82;0.82;;;18.90;97.20;;;;;;6312361;28;20263;-67
2022/08/30 14:17:49;;;;;;;0.57;0.57;;;19.00;97.20;;;;;;6311753;28;20470;-67
2022/08/30 14:20:58;;;;;;;1.13;0.70;;;18.70;95.90;;;;;;6311562;28;20286;-66
2022/08/30 14:24:05;;;;;;;0.70;0.70;;;18.50;96.70;;;;;;6311417;28;20270;-68
2022/08/30 14:27:10;;;;;;;2.50;0.90;;;18.40;97.20;;;;;;6311011;28;20457;-67
2022/08/30 14:30:17;;;;;;;3.60;0.82;;;18.30;97.40;;;;;;6311441;28;20289;-67
2022/08/30 14:33:26;;;;;;;0.70;0.70;;;18.30;97.80;;;;;;6284742;28;20311;-68
2022/08/30 14:36:34;;;;;;;0.90;0.90;;;18.40;97.20;;;;;;6311181;28;20294;-68
2022/08/30 14:39:40;;;;;;;0.70;0.70;;;18.50;97.10;;;;;;6311038;28;20274;-68
2022/08/30 14:42:45;;;;;;;3.20;0.75;;;18.40;97.10;;;;;;6311231;28;20298;-67
2022/08/30 14:45:51;;;;;;;0.70;0.70;;;18.50;97.30;;;;;;6310801;28;20271;-67
2022/08/30 14:48:58;;;;;;;0.70;0.70;;;18.40;97.50;;;;;;6310998;28;20290;-68
2022/08/30 14:52:04;;;;;;;0.63;0.60;;;18.20;97.60;;;;;;6310717;28;20294;-68
2022/08/30 14:55:11;;;;;;;0.77;0.77;;;18.10;97.80;;;;;;6310980;28;20571;-67
2022/08/30 14:58:17;;;;;;;1.75;0.80;;;18.00;98.00;;;;;;6310875;28;20299;-67
2022/08/30 15:01:23;;;;;;;0.70;0.70;;;18.10;98.40;;;;;;6310583;28;20338;-67
2022/08/30 15:04:30;;;;;;;0.75;0.75;;;18.10;98.40;;;;;;6310626;28;20492;-68
2022/08/30 15:07:35;;;;;;;1.55;0.80;;;18.30;98.80;;;;;;6310354;28;20480;-67
2022/08/30 15:10:41;;;;;;;0.80;0.80;;;18.30;98.50;;;;;;6309702;28;20307;-67
2022/08/30 15:13:47;;;;;;;1.88;1.10;;;18.20;99.70;;;;;;6310973;28;20270;-68
2022/08/30 15:16:54;;;;;;;0.90;0.90;;;18.00;99.90;;;;;;6309959;28;20299;-67
2022/08/30 15:20:01;;;;;;;1.10;1.10;;;17.80;99.90;;;;;;6310018;28;20458;-68
2022/08/30 15:23:10;;;;;;;1.27;0.70;;;17.70;99.90;;;;;;6325845;28;20299;-67
2022/08/30 15:26:21;;;;;;;1.25;1.02;;;17.60;99.90;;;;;;6310346;28;20290;-67
2022/08/30 15:29:26;;;;;;;3.60;1.20;;;17.70;99.90;;;;;;6310633;28;20286;-68
2022/08/30 15:32:34;;;;;;;1.45;0.75;;;17.70;99.90;;;;;;6310207;28;20295;-68
2022/08/30 15:35:41;;;;;;;1.20;1.20;;;17.80;99.20;;;;;;6310095;28;20358;-68
2022/08/30 15:38:47;;;;;;;1.20;1.17;;;17.80;98.90;;;;;;6310373;28;20270;-68
2022/08/30 15:41:53;;;;;;;0.90;0.90;;;17.90;98.60;;;;;;6310265;28;20294;-68
2022/08/30 15:45:02;;;;;;;2.63;1.13;;;17.90;98.50;;;;;;6310164;28;20272;-68
2022/08/30 15:48:08;;;;;;;1.40;1.40;;;17.90;97.80;;;;;;6310039;28;20299;-67
2022/08/30 15:51:16;;;;;;;1.75;1.70;;;17.80;97.20;;;;;;6310017;28;20491;-67
2022/08/30 15:54:23;;;;;;;1.58;1.58;;;17.80;97.30;;;;;;6310520;28;20271;-67
2022/08/30 15:57:30;;;;;;;1.15;1.08;;;17.80;97.00;;;;;;6310246;28;20470;-68
2022/08/30 16:00:36;;;;;;;1.48;1.48;;;17.70;96.70;;;;;;6310528;28;20274;-68
2022/08/30 16:03:49;;;;;;;2.00;1.92;;;17.60;96.90;;;;;;6309969;28;20331;-67
2022/08/30 16:06:56;;;;;;;1.35;1.23;;;17.50;97.10;;;;;;6309964;28;20294;-67
2022/08/30 16:10:01;;;;;;;1.10;1.10;;;17.50;97.80;;;;;;6309766;28;20294;-67
2022/08/30 16:13:06;;;;;;;1.70;1.70;;;17.40;98.00;;;;;;6309670;28;20303;-68
2022/08/30 16:16:13;;;;;;;2.58;1.10;;;17.40;98.50;;;;;;6309684;28;20290;-67
2022/08/30 16:19:19;;;;;;;1.40;1.30;;;17.30;98.80;;;;;;6310125;28;20267;-67
2022/08/30 16:22:25;;;;;;;3.58;1.08;;;17.30;99.10;;;;;;6312951;28;20298;-68
2022/08/30 16:25:31;;;;;;;1.65;1.55;;;17.30;99.00;;;;;;6315055;28;20267;-68
2022/08/30 16:28:46;;;;;;;0.93;0.93;;;17.20;99.30;;;;;;6314038;28;20278;-66
2022/08/30 16:31:54;;;;;;;1.40;1.40;;;17.20;99.40;;;;;;6314359;28;20298;-67
2022/08/30 16:34:59;;;;;;;0.95;0.95;;;17.20;99.60;;;;;;6314620;28;20267;-67